createdAt,value
2022-12-14T00:00:05.369Z,72.61
2022-12-14T00:02:42.316Z,72.59
2022-12-14T00:05:12.682Z,72.18
2022-12-14T00:07:42.935Z,72.03
2022-12-14T00:10:13.591Z,72.34
2022-12-14T00:12:43.864Z,72.58
2022-12-14T00:15:14.334Z,72.02
2022-12-14T00:17:44.538Z,72.15
2022-12-14T00:20:15.082Z,71.71
2022-12-14T00:22:45.899Z,72.11
2022-12-14T00:25:15.984Z,71.37
2022-12-14T00:27:47.785Z,72.72
2022-12-14T00:30:20.225Z,72.37
2022-12-14T00:32:50.529Z,73.14
2022-12-14T00:35:20.933Z,73.26
2022-12-14T00:37:51.215Z,73.45
2022-12-14T00:40:21.565Z,73.29
2022-12-14T00:42:51.717Z,73.49
2022-12-14T00:45:21.903Z,73.14
2022-12-14T00:47:52.140Z,73.43
2022-12-14T00:50:22.435Z,73.98
2022-12-14T00:52:52.359Z,72.87
2022-12-14T00:55:22.623Z,74.01
2022-12-14T00:57:53.048Z,73.44
2022-12-14T01:00:23.508Z,73.93
2022-12-14T01:02:53.024Z,73.16
2022-12-14T01:05:23.194Z,74.25
2022-12-14T01:07:53.053Z,73.93
2022-12-14T01:10:23.303Z,75.01
2022-12-14T01:12:53.688Z,74.98
2022-12-14T01:15:23.999Z,74.65
2022-12-14T01:17:54.581Z,75.28
2022-12-14T01:20:24.793Z,75.60
2022-12-14T01:22:57.567Z,74.74
2022-12-14T01:25:28.166Z,75.04
2022-12-14T01:27:58.739Z,75.26
2022-12-14T01:30:29.015Z,75.27
2022-12-14T01:32:59.382Z,75.55
2022-12-14T01:35:29.461Z,75.40
2022-12-14T01:37:59.712Z,75.73
2022-12-14T01:40:29.418Z,75.74
2022-12-14T01:42:59.416Z,76.01
2022-12-14T01:45:29.871Z,76.90
2022-12-14T01:48:03.993Z,76.34
2022-12-14T01:50:39.515Z,76.43
2022-12-14T01:53:16.394Z,76.62
2022-12-14T01:55:53.503Z,78.31
2022-12-14T01:58:26.197Z,77.99
2022-12-14T02:00:59.583Z,77.56
2022-12-14T02:03:35.220Z,77.27
2022-12-14T02:06:13.867Z,78.02
2022-12-14T02:08:46.479Z,77.91
2022-12-14T02:11:22.412Z,79.25
2022-12-14T02:13:52.905Z,79.05
2022-12-14T02:16:23.216Z,80.23
2022-12-14T02:18:53.485Z,81.24
2022-12-14T02:21:26.272Z,79.65
2022-12-14T02:24:07.601Z,80.41
2022-12-14T02:26:59.207Z,80.02
2022-12-14T02:29:53.199Z,81.02
2022-12-14T02:32:41.525Z,80.95
2022-12-14T02:35:20.631Z,80.51
2022-12-14T02:38:05.031Z,80.27
2022-12-14T02:41:04.175Z,79.87
2022-12-14T02:44:18.802Z,79.57
2022-12-14T02:47:14.070Z,81.32
2022-12-14T02:50:05.445Z,81.21
2022-12-14T02:52:40.738Z,81.37
2022-12-14T02:55:27.814Z,81.40
2022-12-14T02:57:58.208Z,80.77
2022-12-14T03:00:30.536Z,81.16
2022-12-14T03:03:02.185Z,82.09
2022-12-14T03:05:32.750Z,82.13
2022-12-14T03:08:12.247Z,82.51
2022-12-14T03:10:50.304Z,82.40
2022-12-14T03:13:46.504Z,81.81
2022-12-14T03:16:29.188Z,82.43
2022-12-14T03:19:11.059Z,83.02
2022-12-14T03:21:48.330Z,84.48
2022-12-14T03:24:25.748Z,84.63
2022-12-14T03:27:02.018Z,83.72
2022-12-14T03:29:41.097Z,83.93
2022-12-14T03:32:15.558Z,84.92
2022-12-14T03:34:54.846Z,85.32
2022-12-14T03:37:52.903Z,84.74
2022-12-14T03:40:33.037Z,85.09
2022-12-14T03:43:39.923Z,85.34
2022-12-14T03:46:14.554Z,85.45
2022-12-14T03:48:52.713Z,84.93
2022-12-14T03:51:40.953Z,84.93
2022-12-14T03:54:29.919Z,85.08
2022-12-14T03:57:07.282Z,84.42
2022-12-14T03:59:40.200Z,85.31
2022-12-14T04:02:28.480Z,85.77
2022-12-14T04:05:10.660Z,86.27
2022-12-14T04:07:53.809Z,86.04
2022-12-14T04:10:51.093Z,85.64
2022-12-14T04:13:43.320Z,87.05
2022-12-14T04:16:42.201Z,86.69
2022-12-14T04:19:21.405Z,86.74
2022-12-14T04:22:06.218Z,86.44
2022-12-14T04:25:01.270Z,86.19
2022-12-14T04:27:40.517Z,85.52
2022-12-14T04:30:12.981Z,85.71
2022-12-14T04:32:48.546Z,85.59
2022-12-14T04:35:31.165Z,85.00
2022-12-14T04:38:19.026Z,84.70
2022-12-14T04:40:57.667Z,85.63
2022-12-14T04:43:32.951Z,85.82
2022-12-14T04:46:09.560Z,85.78
2022-12-14T04:49:03.253Z,85.21
2022-12-14T04:52:15.150Z,85.11
2022-12-14T04:54:55.314Z,86.16
2022-12-14T04:57:38.547Z,85.81
2022-12-14T05:00:09.648Z,85.98
2022-12-14T05:03:16.608Z,85.95
2022-12-14T05:05:55.584Z,85.90
2022-12-14T05:08:43.615Z,86.54
2022-12-14T05:11:54.705Z,86.28
2022-12-14T05:14:36.836Z,86.20
2022-12-14T05:17:09.204Z,86.02
2022-12-14T05:19:48.849Z,86.83
2022-12-14T05:22:20.014Z,86.95
2022-12-14T05:24:50.396Z,86.28
2022-12-14T05:27:20.645Z,86.02
2022-12-14T05:29:50.888Z,86.50
2022-12-14T05:32:21.950Z,86.75
2022-12-14T05:34:52.228Z,87.01
2022-12-14T05:37:22.013Z,85.90
2022-12-14T05:39:52.208Z,86.90
2022-12-14T05:42:22.820Z,87.43
2022-12-14T05:44:53.175Z,87.57
2022-12-14T05:47:22.883Z,86.54
2022-12-14T05:49:53.264Z,87.00
2022-12-14T05:52:25.798Z,86.69
2022-12-14T05:54:59.525Z,86.91
2022-12-14T05:57:34.006Z,87.62
2022-12-14T06:00:05.700Z,87.59
2022-12-14T06:02:35.999Z,87.30
2022-12-14T06:05:05.915Z,86.84
2022-12-14T06:07:36.090Z,87.80
2022-12-14T06:10:06.606Z,87.59
2022-12-14T06:12:36.841Z,87.65
2022-12-14T06:15:06.785Z,86.94
2022-12-14T06:17:36.683Z,88.18
2022-12-14T06:20:07.387Z,88.33
2022-12-14T06:22:40.432Z,88.38
2022-12-14T06:25:13.089Z,88.59
2022-12-14T06:27:43.223Z,89.03
2022-12-14T06:30:14.177Z,89.09
2022-12-14T06:32:44.474Z,90.05
2022-12-14T06:35:14.521Z,89.89
2022-12-14T06:37:44.786Z,90.74
2022-12-14T06:40:19.610Z,90.48
2022-12-14T06:42:49.676Z,90.46
2022-12-14T06:45:19.764Z,89.84
2022-12-14T06:47:49.789Z,90.01
2022-12-14T06:50:19.769Z,90.08
2022-12-14T06:52:53.501Z,90.43
2022-12-14T06:55:27.725Z,89.72
2022-12-14T06:57:58.158Z,90.90
2022-12-14T07:00:28.385Z,91.06
2022-12-14T07:02:58.834Z,91.20
2022-12-14T07:05:29.176Z,91.03
2022-12-14T07:07:59.135Z,91.52
2022-12-14T07:10:29.711Z,91.31
2022-12-14T07:12:59.994Z,91.45
2022-12-14T07:15:30.283Z,91.18
2022-12-14T07:18:00.116Z,90.45
2022-12-14T07:20:30.380Z,90.08
2022-12-14T07:23:00.176Z,90.47
2022-12-14T07:25:33.022Z,91.55
2022-12-14T07:28:02.876Z,90.39
2022-12-14T07:30:32.866Z,92.22
2022-12-14T07:33:03.218Z,92.34
2022-12-14T07:35:33.035Z,91.92
2022-12-14T07:38:03.223Z,92.50
2022-12-14T07:40:36.171Z,92.63
2022-12-14T07:43:06.663Z,92.48
2022-12-14T07:45:36.722Z,91.80
2022-12-14T07:48:08.774Z,91.77
2022-12-14T07:50:39.052Z,91.60
2022-12-14T07:53:09.160Z,91.25
2022-12-14T07:55:39.480Z,91.31
2022-12-14T07:58:09.704Z,91.80
2022-12-14T08:00:39.987Z,92.06
2022-12-14T08:03:09.739Z,91.72
2022-12-14T08:05:42.642Z,93.31
2022-12-14T08:08:13.172Z,93.26
2022-12-14T08:10:43.422Z,92.84
2022-12-14T08:13:13.883Z,93.40
2022-12-14T08:15:44.209Z,93.20
2022-12-14T08:18:14.250Z,93.02
2022-12-14T08:20:48.589Z,93.50
2022-12-14T08:23:23.393Z,93.17
2022-12-14T08:25:58.178Z,92.04
2022-12-14T08:28:30.189Z,93.19
2022-12-14T08:31:05.461Z,93.02
2022-12-14T08:33:37.546Z,92.04
2022-12-14T08:36:22.625Z,92.65
2022-12-14T08:38:57.661Z,93.31
2022-12-14T08:41:29.291Z,93.56
2022-12-14T08:44:01.445Z,93.81
2022-12-14T08:46:36.011Z,93.81
2022-12-14T08:49:06.366Z,93.35
2022-12-14T09:02:57.804Z,91.31
2022-12-14T09:05:28.425Z,91.41
2022-12-14T09:07:59.064Z,91.80
2022-12-14T09:10:29.347Z,91.39
2022-12-14T09:13:00.173Z,90.45
2022-12-14T09:15:30.380Z,90.84
2022-12-14T09:18:00.229Z,89.66
2022-12-14T09:20:30.412Z,89.31
2022-12-14T09:23:00.751Z,88.84
2022-12-14T09:25:30.528Z,88.60
2022-12-14T09:28:00.524Z,87.54
2022-12-14T09:30:30.319Z,87.60
2022-12-14T09:33:00.556Z,88.10
2022-12-14T09:35:30.274Z,87.41
2022-12-14T09:38:00.886Z,86.71
2022-12-14T09:40:34.680Z,86.61
2022-12-14T09:43:08.639Z,86.18
2022-12-14T09:45:50.052Z,86.57
2022-12-14T09:48:26.464Z,87.13
2022-12-14T09:50:57.338Z,86.52
2022-12-14T09:53:29.082Z,85.59
2022-12-14T09:56:00.468Z,85.30
2022-12-14T09:58:33.468Z,83.47
2022-12-14T10:01:27.821Z,83.16
2022-12-14T10:04:17.404Z,83.71
2022-12-14T10:06:53.586Z,83.73
2022-12-14T10:10:02.639Z,83.35
2022-12-14T10:12:59.134Z,83.00
2022-12-14T10:15:55.161Z,82.98
2022-12-14T10:21:35.591Z,82.43
2022-12-14T10:24:11.284Z,82.82
2022-12-14T10:26:49.550Z,82.72
2022-12-14T10:29:27.643Z,82.22
2022-12-14T10:32:04.377Z,81.40
2022-12-14T10:34:36.353Z,81.40
2022-12-14T10:37:27.442Z,81.55
2022-12-14T10:40:19.757Z,81.34
2022-12-14T10:43:33.213Z,81.55
2022-12-14T10:46:22.213Z,80.86
2022-12-14T10:48:56.566Z,81.37
2022-12-14T10:51:33.319Z,80.82
2022-12-14T10:54:38.544Z,80.90
2022-12-14T10:57:08.840Z,80.59
2022-12-14T10:59:50.807Z,80.31
2022-12-14T11:02:31.907Z,79.80
2022-12-14T11:05:05.756Z,79.06
2022-12-14T11:07:35.995Z,79.68
2022-12-14T11:10:33.832Z,79.05
2022-12-14T11:13:20.636Z,79.57
2022-12-14T11:15:53.746Z,79.04
2022-12-14T11:18:33.653Z,78.17
2022-12-14T11:21:07.030Z,77.72
2022-12-14T11:23:42.522Z,78.71
2022-12-14T11:26:19.710Z,78.03
2022-12-14T11:28:59.209Z,75.98
2022-12-14T11:31:45.234Z,75.68
2022-12-14T11:34:37.149Z,76.57
2022-12-14T11:37:27.472Z,75.58
2022-12-14T11:40:01.349Z,76.54
2022-12-14T11:42:32.454Z,74.24
2022-12-14T11:45:26.975Z,74.37
2022-12-14T11:48:16.008Z,74.95
2022-12-14T11:50:48.376Z,74.02
2022-12-14T11:53:20.863Z,74.11
2022-12-14T11:56:01.030Z,72.63
2022-12-14T11:58:35.164Z,71.62
2022-12-14T12:01:16.175Z,71.26
2022-12-14T12:03:56.968Z,71.66
2022-12-14T12:06:31.603Z,69.69
2022-12-14T12:09:04.216Z,70.06
2022-12-14T12:11:36.406Z,64.88
2022-12-14T12:14:18.682Z,67.35
2022-12-14T12:16:49.812Z,67.12
2022-12-14T12:19:37.834Z,66.41
2022-12-14T12:22:12.326Z,64.42
2022-12-14T12:25:23.703Z,63.38
2022-12-14T12:27:41.105Z,63.02
2022-12-14T12:30:33.691Z,63.69
2022-12-14T12:33:43.060Z,65.43
2022-12-14T12:36:13.978Z,62.54
2022-12-14T12:39:01.717Z,62.78
2022-12-14T12:42:05.203Z,61.70
2022-12-14T12:45:02.242Z,61.20
2022-12-14T12:47:47.289Z,60.45
2022-12-14T12:50:33.495Z,60.37
2022-12-14T12:53:30.214Z,59.27
2022-12-14T12:56:14.982Z,59.64
2022-12-14T12:58:52.339Z,59.22
2022-12-14T13:01:29.626Z,60.78
2022-12-14T13:04:06.399Z,57.53
2022-12-14T13:06:45.820Z,56.44
2022-12-14T13:09:30.452Z,55.85
2022-12-14T13:12:02.008Z,55.70
2022-12-14T13:14:49.534Z,56.95
2022-12-14T13:17:36.059Z,56.85
2022-12-14T13:20:17.969Z,54.60
2022-12-14T13:22:49.577Z,56.65
2022-12-14T13:25:29.514Z,55.50
2022-12-14T13:28:23.518Z,53.34
2022-12-14T13:31:20.693Z,53.52
2022-12-14T13:34:23.651Z,52.91
2022-12-14T13:37:12.175Z,53.69
2022-12-14T13:40:10.058Z,51.56
2022-12-14T13:43:13.735Z,53.33
2022-12-14T13:45:49.949Z,51.82
2022-12-14T13:48:32.773Z,50.86
2022-12-14T13:51:06.452Z,50.99
2022-12-14T13:53:48.525Z,49.01
2022-12-14T13:56:30.858Z,52.89
2022-12-14T13:59:05.156Z,50.87
2022-12-14T14:01:50.456Z,52.38
2022-12-14T14:04:24.425Z,52.77
2022-12-14T14:06:56.819Z,51.30
2022-12-14T14:09:33.121Z,52.56
2022-12-14T14:12:19.424Z,52.18
2022-12-14T14:15:10.722Z,48.54
2022-12-14T14:17:42.658Z,48.43
2022-12-14T14:20:52.561Z,49.11
2022-12-14T14:23:32.747Z,48.37
2022-12-14T14:26:24.722Z,45.18
2022-12-14T14:29:07.791Z,48.10
2022-12-14T14:31:50.468Z,46.07
2022-12-14T14:34:48.522Z,47.44
2022-12-14T14:37:21.531Z,44.11
2022-12-14T14:40:21.973Z,46.69
2022-12-14T14:43:09.004Z,47.94
2022-12-14T14:45:44.300Z,49.92
2022-12-14T14:49:02.358Z,49.88
2022-12-14T14:51:36.742Z,48.53
2022-12-14T14:55:03.637Z,51.17
2022-12-14T14:57:37.622Z,49.07
2022-12-14T15:00:12.197Z,48.69
2022-12-14T15:02:44.619Z,51.73
2022-12-14T15:05:44.469Z,49.65
2022-12-14T15:08:35.634Z,48.94
2022-12-14T15:11:16.034Z,47.59
2022-12-14T15:13:53.767Z,46.42
2022-12-14T15:16:42.175Z,44.92
2022-12-14T15:19:24.984Z,45.15
2022-12-14T15:22:02.385Z,45.91
2022-12-14T15:24:39.163Z,44.57
2022-12-14T15:27:31.901Z,45.50
2022-12-14T15:30:26.290Z,45.41
2022-12-14T15:33:06.401Z,45.17
2022-12-14T15:35:39.838Z,42.36
2022-12-14T15:38:16.919Z,43.38
2022-12-14T15:40:58.408Z,45.33
2022-12-14T15:43:30.099Z,41.52
2022-12-14T15:46:03.628Z,40.97
2022-12-14T15:48:36.339Z,44.72
2022-12-14T15:51:11.891Z,44.88
2022-12-14T15:53:50.342Z,45.59
2022-12-14T15:56:45.313Z,45.06
2022-12-14T15:59:24.209Z,45.07
2022-12-14T16:02:07.744Z,43.84
2022-12-14T16:04:39.262Z,41.77
2022-12-14T16:07:36.841Z,40.71
2022-12-14T16:10:23.022Z,42.88
2022-12-14T16:12:57.878Z,41.13
2022-12-14T16:15:31.902Z,41.95
2022-12-14T16:18:03.652Z,39.71
2022-12-14T16:20:39.623Z,38.29
2022-12-14T16:23:15.900Z,39.88
2022-12-14T16:26:17.753Z,40.69
2022-12-14T16:28:48.679Z,40.52
2022-12-14T16:31:24.137Z,42.11
2022-12-14T16:34:30.259Z,43.42
2022-12-14T16:39:54.873Z,38.07
2022-12-14T16:42:27.637Z,39.23
2022-12-14T16:44:58.088Z,41.33
2022-12-14T16:47:37.466Z,40.89
2022-12-14T16:50:56.306Z,43.15
2022-12-14T16:53:33.928Z,41.83
2022-12-14T16:56:20.843Z,42.32
2022-12-14T16:58:55.400Z,41.68
2022-12-14T17:01:26.296Z,41.23
2022-12-14T17:04:05.771Z,39.68
2022-12-14T17:06:47.160Z,41.87
2022-12-14T17:09:21.971Z,40.36
2022-12-14T17:11:54.946Z,42.51
2022-12-14T17:14:25.857Z,40.36
2022-12-14T17:17:06.155Z,40.56
2022-12-14T17:19:40.683Z,41.16
2022-12-14T17:22:26.438Z,38.90
2022-12-14T17:24:56.894Z,40.61
2022-12-14T17:27:29.935Z,39.11
2022-12-14T17:30:00.581Z,39.38
2022-12-14T17:32:34.144Z,38.78
2022-12-14T17:35:05.498Z,38.15
2022-12-14T17:37:38.317Z,37.93
2022-12-14T17:40:10.164Z,38.96
2022-12-14T17:42:42.500Z,37.97
2022-12-14T17:45:24.667Z,39.28
2022-12-14T17:47:56.020Z,39.37
2022-12-14T17:50:26.883Z,38.39
2022-12-14T17:52:57.225Z,38.73
2022-12-14T17:55:30.059Z,38.71
2022-12-14T17:58:01.431Z,37.84
2022-12-14T18:00:52.184Z,38.96
2022-12-14T18:03:22.727Z,38.78
2022-12-14T18:05:54.530Z,37.72
2022-12-14T18:08:26.031Z,38.04
2022-12-14T18:11:02.788Z,40.13
2022-12-14T18:13:34.017Z,40.17
2022-12-14T18:16:04.678Z,38.16
2022-12-14T18:18:34.994Z,39.41
2022-12-14T18:21:06.153Z,39.49
2022-12-14T18:23:36.597Z,39.54
2022-12-14T18:26:06.982Z,39.34
2022-12-14T18:28:38.090Z,38.40
2022-12-14T18:31:11.021Z,39.42
2022-12-14T18:33:41.864Z,40.03
2022-12-14T18:36:14.761Z,40.84
2022-12-14T18:38:45.065Z,40.05
2022-12-14T18:41:23.229Z,41.68
2022-12-14T18:43:55.617Z,41.61
2022-12-14T18:46:26.383Z,41.71
2022-12-14T18:48:56.802Z,42.15
2022-12-14T18:51:28.315Z,42.28
2022-12-14T18:54:01.950Z,42.41
2022-12-14T18:56:32.361Z,43.21
2022-12-14T18:59:02.641Z,42.68
2022-12-14T19:01:33.105Z,44.16
2022-12-14T19:04:03.630Z,44.86
2022-12-14T19:06:44.271Z,44.57
2022-12-14T19:09:16.613Z,44.77
2022-12-14T19:11:47.001Z,45.84
2022-12-14T19:14:18.146Z,46.25
2022-12-14T19:16:48.364Z,46.04
2022-12-14T19:19:22.496Z,46.65
2022-12-14T19:21:53.912Z,46.61
2022-12-14T19:24:24.244Z,46.76
2022-12-14T19:26:54.472Z,46.97
2022-12-14T19:29:24.671Z,47.35
2022-12-14T19:31:57.059Z,46.70
2022-12-14T19:34:30.674Z,46.36
2022-12-14T19:37:01.050Z,47.87
2022-12-14T19:39:31.379Z,48.20
2022-12-14T19:42:01.680Z,48.70
2022-12-14T19:44:35.570Z,48.60
2022-12-14T19:47:05.847Z,48.86
2022-12-14T19:49:36.162Z,48.81
2022-12-14T19:52:07.294Z,48.41
2022-12-14T19:54:37.606Z,48.47
2022-12-14T19:57:08.701Z,49.04
2022-12-14T19:59:38.967Z,49.49
2022-12-14T20:02:12.891Z,48.84
2022-12-14T20:04:43.455Z,50.33
2022-12-14T20:07:15.664Z,49.49
2022-12-14T20:09:45.905Z,50.06
2022-12-14T20:12:16.132Z,50.09
2022-12-14T20:14:46.434Z,50.19
2022-12-14T20:17:19.999Z,48.77
2022-12-14T20:19:50.132Z,49.42
2022-12-14T20:22:20.545Z,49.76
2022-12-14T20:24:51.054Z,50.35
2022-12-14T20:27:21.965Z,52.28
2022-12-14T20:29:52.283Z,52.70
2022-12-14T20:32:22.643Z,52.33
2022-12-14T20:34:52.912Z,51.54
2022-12-14T20:37:23.940Z,52.55
2022-12-14T20:39:54.218Z,52.93
2022-12-14T20:42:24.561Z,52.96
2022-12-14T20:44:54.848Z,53.64
2022-12-14T20:47:25.128Z,54.55
2022-12-14T20:49:56.073Z,55.06
2022-12-14T20:52:26.772Z,54.98
2022-12-14T20:54:56.967Z,55.49
2022-12-14T20:57:27.958Z,55.87
2022-12-14T20:59:59.450Z,55.70
2022-12-14T21:02:30.081Z,56.07
2022-12-14T21:05:00.458Z,56.18
2022-12-14T21:07:32.790Z,56.67
2022-12-14T21:10:03.003Z,56.53
2022-12-14T21:12:32.608Z,56.10
2022-12-14T21:15:03.104Z,56.70
2022-12-14T21:17:33.566Z,57.93
2022-12-14T21:20:03.821Z,58.50
2022-12-14T21:22:36.607Z,59.74
2022-12-14T21:25:07.891Z,59.91
2022-12-14T21:27:40.307Z,60.73
2022-12-14T21:30:12.685Z,60.88
2022-12-14T21:32:43.130Z,61.26
2022-12-14T21:35:14.570Z,61.45
2022-12-14T21:37:44.922Z,62.00
2022-12-14T21:40:35.009Z,61.39
2022-12-14T21:43:05.893Z,61.43
2022-12-14T21:45:36.163Z,59.73
2022-12-14T21:48:06.847Z,59.44
2022-12-14T21:50:37.421Z,60.34
2022-12-14T21:53:07.734Z,61.33
2022-12-14T21:55:38.062Z,61.88
2022-12-14T21:58:20.371Z,61.09
2022-12-14T22:00:50.204Z,59.62
2022-12-14T22:03:20.516Z,58.12
2022-12-14T22:05:50.842Z,58.74
2022-12-14T22:08:21.452Z,59.63
2022-12-14T22:10:51.645Z,60.33
2022-12-14T22:13:21.949Z,61.35
2022-12-14T22:15:52.180Z,62.09
2022-12-14T22:18:22.640Z,62.29
2022-12-14T22:20:52.759Z,63.01
2022-12-14T22:23:22.801Z,63.60
2022-12-14T22:25:52.655Z,62.75
2022-12-14T22:28:22.624Z,64.14
2022-12-14T22:30:52.109Z,63.38
2022-12-14T22:33:22.114Z,64.07
2022-12-14T22:35:52.565Z,64.28
2022-12-14T22:38:22.778Z,64.54
2022-12-14T22:40:53.046Z,64.45
2022-12-14T22:43:28.107Z,64.41
2022-12-14T22:46:05.006Z,64.31
2022-12-14T22:48:37.046Z,64.82
2022-12-14T22:51:11.603Z,66.01
2022-12-14T22:53:41.945Z,65.20
2022-12-14T22:56:28.498Z,65.54
2022-12-14T22:59:01.623Z,65.19
2022-12-14T23:01:32.720Z,65.55
2022-12-14T23:04:03.783Z,65.91
2022-12-14T23:06:35.470Z,65.52
2022-12-14T23:09:25.132Z,66.42
2022-12-14T23:12:18.317Z,67.49
2022-12-14T23:15:10.112Z,66.76
2022-12-14T23:17:58.528Z,66.72
2022-12-14T23:20:46.789Z,66.46
2022-12-14T23:23:35.512Z,67.20
2022-12-14T23:26:24.599Z,67.09
2022-12-14T23:29:13.404Z,68.10
2022-12-14T23:32:01.315Z,66.93
2022-12-14T23:34:50.079Z,67.26
2022-12-14T23:37:38.427Z,68.63
2022-12-14T23:40:27.453Z,68.86
2022-12-14T23:43:15.870Z,68.84
2022-12-14T23:46:04.227Z,68.32
2022-12-14T23:48:52.881Z,69.05
2022-12-14T23:51:41.275Z,69.85
2022-12-14T23:54:29.591Z,69.21
2022-12-14T23:57:17.918Z,69.27
